createdAt,value
2019-01-18T00:00:51.244Z,96740.41
2019-01-18T00:03:20.708Z,96743.50
2019-01-18T00:05:50.335Z,96747.13
2019-01-18T00:08:19.793Z,96747.06
2019-01-18T00:10:49.264Z,96748.13
2019-01-18T00:13:18.756Z,96748.23
2019-01-18T00:15:48.206Z,96743.31
2019-01-18T00:18:17.669Z,96749.47
2019-01-18T00:20:47.162Z,96761.98
2019-01-18T00:23:16.677Z,96762.77
2019-01-18T00:25:46.142Z,96758.25
2019-01-18T00:28:15.701Z,96759.08
2019-01-18T00:30:45.215Z,96761.87
2019-01-18T00:33:14.671Z,96763.28
2019-01-18T00:35:44.173Z,96763.08
2019-01-18T00:38:13.636Z,96758.22
2019-01-18T00:40:43.105Z,96758.41
2019-01-18T00:43:12.604Z,96760.99
2019-01-18T00:45:42.061Z,96764.27
2019-01-18T00:48:11.518Z,96769.26
2019-01-18T00:50:41.009Z,96771.56
2019-01-18T00:53:10.470Z,96768.02
2019-01-18T00:55:40.135Z,96767.80
2019-01-18T00:58:09.606Z,96769.52
2019-01-18T01:00:39.060Z,96767.83
2019-01-18T01:03:08.535Z,96766.00
2019-01-18T01:05:37.994Z,96764.40
2019-01-18T01:08:07.451Z,96763.90
2019-01-18T01:10:36.946Z,96772.48
2019-01-18T01:13:06.402Z,96772.48
2019-01-18T01:15:35.967Z,96785.25
2019-01-18T01:18:05.458Z,96788.06
2019-01-18T01:20:34.921Z,96782.87
2019-01-18T01:23:04.379Z,96792.01
2019-01-18T01:25:33.796Z,96789.52
2019-01-18T01:28:03.254Z,96796.46
2019-01-18T01:30:32.713Z,96790.25
2019-01-18T01:33:02.202Z,96788.33
2019-01-18T01:35:31.666Z,96796.29
2019-01-18T01:38:01.129Z,96784.11
2019-01-18T01:40:30.622Z,96796.02
2019-01-18T01:43:00.087Z,96792.44
2019-01-18T01:45:29.567Z,96798.69
2019-01-18T01:47:59.071Z,96803.58
2019-01-18T01:50:28.461Z,96804.03
2019-01-18T01:52:57.920Z,96807.20
2019-01-18T01:55:27.423Z,96798.84
2019-01-18T01:57:57.182Z,96800.29
2019-01-18T02:00:27.838Z,96799.06
2019-01-18T02:02:57.391Z,96793.93
2019-01-18T02:05:26.850Z,96791.87
2019-01-18T02:07:56.323Z,96793.17
2019-01-18T02:10:25.803Z,96800.40
2019-01-18T02:12:55.275Z,96805.37
2019-01-18T02:15:26.642Z,96803.97
2019-01-18T02:17:56.081Z,96797.55
2019-01-18T02:20:26.047Z,96802.98
2019-01-18T02:22:55.625Z,96801.34
2019-01-18T02:25:25.117Z,96799.66
2019-01-18T02:27:54.574Z,96802.91
2019-01-18T02:30:27.347Z,96809.04
2019-01-18T02:32:56.866Z,96818.41
2019-01-18T02:35:26.414Z,96826.89
2019-01-18T02:37:55.914Z,96819.55
2019-01-18T02:40:25.418Z,96811.38
2019-01-18T02:42:55.135Z,96806.59
2019-01-18T02:45:24.896Z,96812.10
2019-01-18T02:47:54.383Z,96805.36
2019-01-18T02:50:23.832Z,96803.46
2019-01-18T02:52:53.219Z,96813.73
2019-01-18T02:55:28.822Z,96809.70
2019-01-18T02:57:53.894Z,96814.83
2019-01-18T03:00:24.275Z,96821.01
2019-01-18T03:02:53.841Z,96825.75
2019-01-18T03:05:25.997Z,96822.73
2019-01-18T03:07:55.468Z,96821.23
2019-01-18T03:10:28.327Z,96829.34
2019-01-18T03:12:57.786Z,96823.13
2019-01-18T03:15:27.242Z,96825.30
2019-01-18T03:17:56.724Z,96829.55
2019-01-18T03:20:26.184Z,96828.66
2019-01-18T03:22:55.599Z,96818.94
2019-01-18T03:25:28.199Z,96823.46
2019-01-18T03:27:57.718Z,96830.13
2019-01-18T03:30:27.241Z,96824.45
2019-01-18T03:32:56.758Z,96835.91
2019-01-18T03:35:26.283Z,96830.39
2019-01-18T03:37:55.751Z,96833.64
2019-01-18T03:40:25.221Z,96849.05
2019-01-18T03:42:54.714Z,96848.57
2019-01-18T03:45:24.178Z,96841.36
2019-01-18T03:47:53.671Z,96855.53
2019-01-18T03:50:25.440Z,96858.38
2019-01-18T03:52:54.905Z,96866.52
2019-01-18T03:55:24.385Z,96866.02
2019-01-18T03:57:53.948Z,96871.25
2019-01-18T04:00:28.638Z,96878.28
2019-01-18T04:02:58.174Z,96874.41
2019-01-18T04:05:27.604Z,96880.92
2019-01-18T04:07:57.066Z,96881.39
2019-01-18T04:10:26.572Z,96875.11
2019-01-18T04:12:56.038Z,96877.73
2019-01-18T04:15:25.492Z,96879.20
2019-01-18T04:17:54.985Z,96882.72
2019-01-18T04:20:24.451Z,96879.30
2019-01-18T04:22:53.911Z,96889.88
2019-01-18T04:25:28.003Z,96891.16
2019-01-18T04:27:57.463Z,96892.86
2019-01-18T04:30:33.248Z,96887.47
2019-01-18T04:32:58.126Z,96888.64
2019-01-18T04:35:27.593Z,96899.61
2019-01-18T04:37:57.049Z,96902.42
2019-01-18T04:40:28.540Z,96904.55
2019-01-18T04:42:58.298Z,96900.17
2019-01-18T04:45:27.765Z,96909.27
2019-01-18T04:47:57.251Z,96907.91
2019-01-18T04:50:29.115Z,96906.48
2019-01-18T04:52:58.518Z,96906.78
2019-01-18T04:55:28.014Z,96908.94
2019-01-18T04:57:57.476Z,96907.23
2019-01-18T05:00:32.065Z,96908.25
2019-01-18T05:03:01.531Z,96918.16
2019-01-18T05:05:31.004Z,96917.76
2019-01-18T05:08:00.469Z,96920.00
2019-01-18T05:10:30.581Z,96917.91
2019-01-18T05:13:00.070Z,96921.17
2019-01-18T05:15:32.130Z,96927.14
2019-01-18T05:18:01.612Z,96926.64
2019-01-18T05:20:31.192Z,96934.05
2019-01-18T05:23:00.644Z,96937.19
2019-01-18T05:25:30.128Z,96941.48
2019-01-18T05:27:59.587Z,96944.13
2019-01-18T05:30:30.565Z,96942.73
2019-01-18T05:33:00.046Z,96945.27
2019-01-18T05:35:29.512Z,96950.05
2019-01-18T05:37:58.979Z,96957.97
2019-01-18T05:40:28.461Z,96961.05
2019-01-18T05:42:57.935Z,96962.45
2019-01-18T05:45:27.501Z,96959.14
2019-01-18T05:47:56.993Z,96957.72
2019-01-18T05:50:28.767Z,96960.44
2019-01-18T05:52:59.227Z,96967.06
2019-01-18T05:55:28.733Z,96960.02
2019-01-18T05:57:58.201Z,96966.80
2019-01-18T06:00:32.942Z,96965.33
2019-01-18T06:03:02.407Z,96971.31
2019-01-18T06:05:33.171Z,96975.08
2019-01-18T06:08:02.660Z,96971.22
2019-01-18T06:10:32.171Z,96977.72
2019-01-18T06:13:01.703Z,96977.64
2019-01-18T06:15:31.196Z,96982.45
2019-01-18T06:18:00.665Z,96989.30
2019-01-18T06:20:30.151Z,96991.55
2019-01-18T06:22:59.648Z,96994.34
2019-01-18T06:25:29.040Z,96997.27
2019-01-18T06:27:58.510Z,97002.05
2019-01-18T06:30:28.016Z,97011.13
2019-01-18T06:32:57.459Z,97012.56
2019-01-18T06:35:27.036Z,97019.67
2019-01-18T06:37:56.639Z,97028.41
2019-01-18T06:40:26.025Z,97034.86
2019-01-18T06:42:55.585Z,97039.39
2019-01-18T06:45:29.123Z,97045.41
2019-01-18T06:47:58.581Z,97051.80
2019-01-18T06:50:28.129Z,97052.94
2019-01-18T06:52:57.617Z,97060.22
2019-01-18T06:55:27.085Z,97071.23
2019-01-18T06:57:56.567Z,97073.22
2019-01-18T07:00:31.567Z,97082.30
2019-01-18T07:03:02.903Z,97081.91
2019-01-18T07:05:32.367Z,97092.53
2019-01-18T07:08:01.857Z,97093.16
2019-01-18T07:10:31.322Z,97101.34
2019-01-18T07:13:00.784Z,97101.37
2019-01-18T07:15:30.228Z,97106.89
2019-01-18T07:17:59.697Z,97117.39
2019-01-18T07:20:29.154Z,97117.30
2019-01-18T07:22:58.658Z,97128.09
2019-01-18T07:25:29.723Z,97129.95
2019-01-18T07:27:59.173Z,97134.52
2019-01-18T07:30:35.454Z,97139.92
2019-01-18T07:33:06.411Z,97147.32
2019-01-18T07:35:35.867Z,97143.58
2019-01-18T07:38:05.357Z,97148.89
2019-01-18T07:40:34.830Z,97150.73
2019-01-18T07:43:04.305Z,97173.05
2019-01-18T07:45:33.801Z,97181.11
2019-01-18T07:48:03.266Z,97172.06
2019-01-18T07:50:32.733Z,97179.78
2019-01-18T07:53:02.233Z,97183.31
2019-01-18T07:55:31.711Z,97192.34
2019-01-18T07:58:01.179Z,97195.13
2019-01-18T08:00:31.573Z,97198.61
2019-01-18T08:03:01.267Z,97204.02
2019-01-18T08:05:31.033Z,97205.06
2019-01-18T08:08:00.514Z,97211.47
2019-01-18T08:10:29.975Z,97218.92
2019-01-18T08:12:59.435Z,97227.98
2019-01-18T08:15:29.639Z,97235.16
2019-01-18T08:17:59.115Z,97237.45
2019-01-18T08:20:29.672Z,97242.19
2019-01-18T08:22:59.457Z,97249.63
2019-01-18T08:25:28.923Z,97254.86
2019-01-18T08:27:58.394Z,97262.03
2019-01-18T08:30:30.100Z,97268.98
2019-01-18T08:32:59.552Z,97267.94
2019-01-18T08:35:29.526Z,97268.03
2019-01-18T08:37:59.010Z,97283.64
2019-01-18T08:40:35.039Z,97285.43
2019-01-18T08:43:06.338Z,97293.59
2019-01-18T08:45:43.038Z,97297.27
2019-01-18T08:48:12.537Z,97302.84
2019-01-18T08:50:42.892Z,97306.88
2019-01-18T08:53:12.357Z,97313.05
2019-01-18T08:55:41.850Z,97316.50
2019-01-18T08:58:11.308Z,97315.95
2019-01-18T09:00:40.815Z,97321.32
2019-01-18T09:03:10.312Z,97320.33
2019-01-18T09:05:40.203Z,97325.06
2019-01-18T09:08:09.595Z,97329.91
2019-01-18T09:10:39.165Z,97327.41
2019-01-18T09:13:08.623Z,97338.69
2019-01-18T09:15:38.176Z,97340.63
2019-01-18T09:18:07.715Z,97338.95
2019-01-18T09:20:37.107Z,97340.46
2019-01-18T09:23:06.602Z,97343.79
2019-01-18T09:25:36.070Z,97353.24
2019-01-18T09:28:05.542Z,97359.91
2019-01-18T09:30:35.605Z,97354.66
2019-01-18T09:33:06.289Z,97360.20
2019-01-18T09:35:36.147Z,97361.38
2019-01-18T09:38:07.924Z,97371.11
2019-01-18T09:40:37.420Z,97370.47
2019-01-18T09:43:06.895Z,97366.77
2019-01-18T09:45:36.355Z,97368.00
2019-01-18T09:48:06.769Z,97372.56
2019-01-18T09:50:36.242Z,97373.70
2019-01-18T09:53:08.010Z,97370.11
2019-01-18T09:55:37.509Z,97368.44
2019-01-18T09:58:06.988Z,97372.45
2019-01-18T10:00:38.152Z,97375.58
2019-01-18T10:03:07.666Z,97370.69
2019-01-18T10:05:56.496Z,97334.77
2019-01-18T10:08:25.987Z,97370.08
2019-01-18T10:10:55.457Z,97371.42
2019-01-18T10:13:25.418Z,97374.16
2019-01-18T10:15:54.934Z,97379.98
2019-01-18T10:18:24.409Z,97370.67
2019-01-18T10:20:53.864Z,97372.94
2019-01-18T10:23:23.346Z,97370.88
2019-01-18T10:25:52.807Z,97370.84
2019-01-18T10:28:22.266Z,97372.22
2019-01-18T10:30:51.757Z,97369.82
2019-01-18T10:33:21.216Z,97374.66
2019-01-18T10:35:50.681Z,97364.59
2019-01-18T10:38:20.096Z,97372.50
2019-01-18T10:40:49.553Z,97373.25
2019-01-18T10:43:19.014Z,97374.34
2019-01-18T10:45:48.514Z,97372.75
2019-01-18T10:48:17.972Z,97372.47
2019-01-18T10:50:47.443Z,97372.42
2019-01-18T10:53:16.932Z,97375.02
2019-01-18T10:55:46.430Z,97366.20
2019-01-18T10:58:15.881Z,97372.13
2019-01-18T11:00:45.369Z,97370.23
2019-01-18T11:03:14.834Z,97369.63
2019-01-18T11:05:44.298Z,97371.99
2019-01-18T11:08:17.383Z,97374.45
2019-01-18T11:10:45.003Z,97376.31
2019-01-18T11:13:14.554Z,97377.77
2019-01-18T11:15:44.055Z,97383.85
2019-01-18T11:18:13.541Z,97383.78
2019-01-18T11:20:53.616Z,97390.11
2019-01-18T11:23:23.178Z,97386.02
2019-01-18T11:25:52.744Z,97388.57
2019-01-18T11:28:22.235Z,97377.25
2019-01-18T11:30:51.703Z,97379.63
2019-01-18T11:33:21.269Z,97383.86
2019-01-18T11:35:50.763Z,97389.59
2019-01-18T11:38:20.231Z,97388.42
2019-01-18T11:40:49.702Z,97388.70
2019-01-18T11:43:19.205Z,97386.67
2019-01-18T11:45:48.673Z,97387.50
2019-01-18T11:48:18.199Z,97375.30
2019-01-18T11:50:47.769Z,97377.61
2019-01-18T11:53:17.236Z,97378.28
2019-01-18T11:55:46.732Z,97372.56
2019-01-18T11:58:16.233Z,97371.59
2019-01-18T12:00:45.708Z,97373.86
2019-01-18T12:03:15.532Z,97382.48
2019-01-18T12:05:45.007Z,97378.45
2019-01-18T12:08:14.467Z,97383.04
2019-01-18T12:10:44.005Z,97382.09
2019-01-18T12:13:13.517Z,97379.37
2019-01-18T12:15:42.991Z,97381.69
2019-01-18T12:18:12.490Z,97384.67
2019-01-18T12:20:41.890Z,97389.02
2019-01-18T12:23:11.351Z,97390.34
2019-01-18T12:25:40.830Z,97395.73
2019-01-18T12:28:10.313Z,97398.73
2019-01-18T12:30:39.770Z,97404.83
2019-01-18T12:33:09.264Z,97403.48
2019-01-18T12:35:38.715Z,97403.05
2019-01-18T12:38:08.195Z,97412.78
2019-01-18T12:40:37.676Z,97407.99
2019-01-18T12:43:07.142Z,97403.76
2019-01-18T12:45:36.793Z,97405.56
2019-01-18T12:48:06.274Z,97405.70
2019-01-18T12:50:36.241Z,97407.16
2019-01-18T12:53:05.710Z,97406.99
2019-01-18T12:55:35.205Z,97415.46
2019-01-18T12:58:04.674Z,97424.20
2019-01-18T13:00:34.126Z,97424.02
2019-01-18T13:03:05.430Z,97425.41
2019-01-18T13:05:39.433Z,97428.77
2019-01-18T13:08:09.148Z,97423.25
2019-01-18T13:10:38.498Z,97424.05
2019-01-18T13:13:07.970Z,97430.91
2019-01-18T13:15:44.919Z,97436.14
2019-01-18T13:18:14.393Z,97436.90
2019-01-18T13:20:43.850Z,97430.72
2019-01-18T13:23:13.393Z,97438.02
2019-01-18T13:25:42.805Z,97437.91
2019-01-18T13:28:12.302Z,97439.78
2019-01-18T13:30:41.776Z,97442.99
2019-01-18T13:33:11.249Z,97447.80
2019-01-18T13:35:40.719Z,97448.41
2019-01-18T13:38:10.306Z,97444.85
2019-01-18T13:40:39.768Z,97451.84
2019-01-18T13:43:09.236Z,97449.61
2019-01-18T13:45:38.762Z,97454.05
2019-01-18T13:48:08.232Z,97455.02
2019-01-18T13:50:37.735Z,97452.81
2019-01-18T13:53:07.184Z,97452.86
2019-01-18T13:55:36.639Z,97458.98
2019-01-18T13:58:06.177Z,97451.55
2019-01-18T14:00:36.674Z,97458.70
2019-01-18T14:03:06.211Z,97457.07
2019-01-18T14:05:35.690Z,97462.64
2019-01-18T14:08:05.199Z,97469.93
2019-01-18T14:10:35.371Z,97472.50
2019-01-18T14:13:04.838Z,97480.22
2019-01-18T14:15:34.346Z,97484.06
2019-01-18T14:18:03.905Z,97487.71
2019-01-18T14:20:33.389Z,97489.84
2019-01-18T14:23:03.038Z,97489.52
2019-01-18T14:25:32.517Z,97494.33
2019-01-18T14:28:02.011Z,97492.91
2019-01-18T14:30:35.672Z,97481.78
2019-01-18T14:33:02.868Z,97488.66
2019-01-18T14:35:32.467Z,97496.67
2019-01-18T14:38:01.931Z,97487.94
2019-01-18T14:40:31.474Z,97495.57
2019-01-18T14:43:00.937Z,97501.78
2019-01-18T14:45:40.935Z,97509.48
2019-01-18T14:48:10.417Z,97516.89
2019-01-18T14:50:39.893Z,97512.82
2019-01-18T14:53:09.471Z,97517.88
2019-01-18T14:55:38.963Z,97522.77
2019-01-18T14:58:09.436Z,97534.41
2019-01-18T15:00:39.804Z,97528.14
2019-01-18T15:03:09.320Z,97528.95
2019-01-18T15:05:38.793Z,97531.03
2019-01-18T15:08:08.652Z,97528.93
2019-01-18T15:10:38.322Z,97533.05
2019-01-18T15:13:11.594Z,97535.97
2019-01-18T15:15:41.061Z,97541.45
2019-01-18T15:18:10.554Z,97539.64
2019-01-18T15:20:40.013Z,97545.56
2019-01-18T15:23:09.480Z,97545.94
2019-01-18T15:25:38.985Z,97546.08
2019-01-18T15:28:08.450Z,97542.03
2019-01-18T15:30:37.972Z,97543.17
2019-01-18T15:33:09.373Z,97547.58
2019-01-18T15:35:38.653Z,97543.81
2019-01-18T15:38:08.305Z,97545.98
2019-01-18T15:40:42.092Z,97554.31
2019-01-18T15:43:12.975Z,97556.03
2019-01-18T15:45:42.443Z,97569.05
2019-01-18T15:48:12.024Z,97569.11
2019-01-18T15:50:41.527Z,97574.70
2019-01-18T15:53:10.989Z,97578.56
2019-01-18T15:55:40.493Z,97582.12
2019-01-18T15:58:09.959Z,97586.66
2019-01-18T16:00:42.033Z,97595.98
2019-01-18T16:03:15.923Z,97594.75
2019-01-18T16:05:43.113Z,97595.92
2019-01-18T16:08:12.751Z,97598.09
2019-01-18T16:10:42.227Z,97601.80
2019-01-18T16:13:11.749Z,97609.63
2019-01-18T16:15:48.614Z,97616.05
2019-01-18T16:18:24.669Z,97610.86
2019-01-18T16:20:54.168Z,97621.95
2019-01-18T16:23:23.666Z,97619.83
2019-01-18T16:25:53.129Z,97622.92
2019-01-18T16:28:22.820Z,97626.20
2019-01-18T16:30:52.279Z,97625.00
2019-01-18T16:33:23.602Z,97627.51
2019-01-18T16:35:53.258Z,97630.13
2019-01-18T16:38:22.746Z,97635.48
2019-01-18T16:40:52.195Z,97630.48
2019-01-18T16:43:31.850Z,97631.52
2019-01-18T16:46:01.422Z,97636.73
2019-01-18T16:48:30.899Z,97639.52
2019-01-18T16:51:00.430Z,97642.50
2019-01-18T16:53:29.902Z,97642.91
2019-01-18T16:55:59.384Z,97646.70
2019-01-18T16:58:28.878Z,97642.72
2019-01-18T17:01:01.651Z,97647.25
2019-01-18T17:03:31.120Z,97648.88
2019-01-18T17:06:00.615Z,97656.28
2019-01-18T17:08:30.097Z,97657.72
2019-01-18T17:10:59.561Z,97656.81
2019-01-18T17:13:29.058Z,97658.32
2019-01-18T17:15:58.517Z,97659.88
2019-01-18T17:18:28.362Z,97663.64
2019-01-18T17:20:57.872Z,97662.36
2019-01-18T17:23:27.350Z,97664.72
2019-01-18T17:25:56.888Z,97658.82
2019-01-18T17:28:26.406Z,97664.48
2019-01-18T17:30:55.875Z,97667.66
2019-01-18T17:33:25.342Z,97665.91
2019-01-18T17:36:16.565Z,97672.08
2019-01-18T17:39:15.806Z,97668.44
2019-01-18T17:42:12.403Z,97667.77
2019-01-18T17:45:10.634Z,97676.70
2019-01-18T17:47:53.523Z,97682.23
2019-01-18T17:50:59.258Z,97685.64
2019-01-18T17:53:33.647Z,97683.38
2019-01-18T17:56:28.893Z,97685.12
2019-01-18T17:59:37.630Z,97693.47
2019-01-18T18:02:27.156Z,97688.64
2019-01-18T18:05:20.624Z,97692.62
2019-01-18T18:08:06.989Z,97692.89
2019-01-18T18:11:04.767Z,97694.09
2019-01-18T18:13:51.022Z,97691.78
2019-01-18T18:16:47.807Z,97691.67
2019-01-18T18:19:39.116Z,97705.77
2019-01-18T18:22:43.445Z,97697.30
2019-01-18T18:25:29.089Z,97697.80
2019-01-18T18:28:39.317Z,97699.42
2019-01-18T18:31:28.038Z,97699.67
2019-01-18T18:34:02.233Z,97694.65
2019-01-18T18:37:02.975Z,97704.81
2019-01-18T18:39:54.863Z,97706.91
2019-01-18T18:42:53.026Z,97708.69
2019-01-18T18:45:48.173Z,97707.14
2019-01-18T18:48:40.376Z,97710.89
2019-01-18T18:51:26.426Z,97717.65
2019-01-18T18:54:23.162Z,97718.09
2019-01-18T18:57:09.276Z,97707.28
2019-01-18T18:59:52.415Z,97704.03
2019-01-18T19:02:55.417Z,97705.44
2019-01-18T19:05:41.661Z,97709.27
2019-01-18T19:08:44.613Z,97712.84
2019-01-18T19:11:21.778Z,97714.09
2019-01-18T19:14:35.372Z,97714.24
2019-01-18T19:17:12.128Z,97718.31
2019-01-18T19:20:10.643Z,97717.51
2019-01-18T19:22:53.772Z,97727.86
2019-01-18T19:25:48.815Z,97728.27
2019-01-18T19:28:45.465Z,97723.89
2019-01-18T19:31:39.330Z,97728.15
2019-01-18T19:34:31.522Z,97730.64
2019-01-18T19:37:36.092Z,97729.07
2019-01-18T19:40:38.737Z,97727.63
2019-01-18T19:43:39.973Z,97729.31
2019-01-18T19:46:25.837Z,97736.52
2019-01-18T19:49:31.671Z,97733.44
2019-01-18T19:52:34.350Z,97737.05
2019-01-18T19:55:38.949Z,97736.91
2019-01-18T19:58:47.822Z,97743.04
2019-01-18T20:01:24.937Z,97742.39
2019-01-18T20:04:11.268Z,97747.91
2019-01-18T20:06:52.388Z,97749.36
2019-01-18T20:09:47.719Z,97751.44
2019-01-18T20:12:39.746Z,97756.30
2019-01-18T20:15:40.843Z,97766.57
2019-01-18T20:18:20.491Z,97773.02
2019-01-18T20:20:55.239Z,97770.52
2019-01-18T20:23:38.170Z,97770.80
2019-01-18T20:26:20.762Z,97774.61
2019-01-18T20:29:09.849Z,97785.98
2019-01-18T20:32:03.488Z,97789.64
2019-01-18T20:34:40.453Z,97789.07
2019-01-18T20:37:33.041Z,97794.94
2019-01-18T20:40:20.221Z,97789.88
2019-01-18T20:43:33.731Z,97793.53
2019-01-18T20:46:45.881Z,97795.00
2019-01-18T20:49:37.787Z,97795.60
2019-01-18T20:52:30.009Z,97796.47
2019-01-18T20:55:12.560Z,97799.70
2019-01-18T20:58:07.884Z,97798.59
2019-01-18T21:01:15.360Z,97803.19
2019-01-18T21:03:57.991Z,97797.46
2019-01-18T21:06:49.902Z,97801.30
2019-01-18T21:09:35.598Z,97796.39
2019-01-18T21:12:30.263Z,97801.73
2019-01-18T21:15:10.144Z,97801.31
2019-01-18T21:18:04.976Z,97803.45
2019-01-18T21:21:04.864Z,97813.78
2019-01-18T21:24:01.983Z,97807.48
2019-01-18T21:26:54.244Z,97813.65
2019-01-18T21:29:47.659Z,97815.36
2019-01-18T21:32:21.885Z,97816.08
2019-01-18T21:35:04.819Z,97814.67
2019-01-18T21:38:03.276Z,97820.19
2019-01-18T21:40:43.303Z,97827.59
2019-01-18T21:43:23.227Z,97828.23
2019-01-18T21:46:24.537Z,97825.52
2019-01-18T21:49:10.589Z,97832.16
2019-01-18T21:51:50.368Z,97835.51
2019-01-18T21:54:41.068Z,97836.33
2019-01-18T21:57:34.554Z,97835.53
2019-01-18T22:00:11.207Z,97839.67
2019-01-18T22:02:57.333Z,97841.27
2019-01-18T22:05:46.012Z,97838.91
2019-01-18T22:08:48.628Z,97844.08
2019-01-18T22:11:59.067Z,97838.72
2019-01-18T22:14:42.301Z,97844.48
2019-01-18T22:17:49.487Z,97848.40
2019-01-18T22:20:32.516Z,97842.44
2019-01-18T22:23:24.650Z,97844.38
2019-01-18T22:26:10.515Z,97845.03
2019-01-18T22:28:53.867Z,97843.45
2019-01-18T22:31:57.141Z,97846.34
2019-01-18T22:34:52.339Z,97838.42
2019-01-18T22:37:44.160Z,97839.44
2019-01-18T22:40:42.440Z,97838.45
2019-01-18T22:43:40.908Z,97838.47
2019-01-18T22:46:51.120Z,97836.41
2019-01-18T22:49:40.279Z,97841.25
2019-01-18T22:52:26.341Z,97846.09
2019-01-18T22:55:30.594Z,97839.28
2019-01-18T22:58:19.089Z,97836.13
2019-01-18T23:00:57.497Z,97841.84
2019-01-18T23:03:49.658Z,97848.14
2019-01-18T23:06:48.256Z,97842.21
2019-01-18T23:09:40.474Z,97840.50
2019-01-18T23:12:23.253Z,97844.85
2019-01-18T23:15:03.285Z,97844.55
2019-01-18T23:17:57.987Z,97845.40
2019-01-18T23:21:06.063Z,97839.36
2019-01-18T23:23:55.356Z,97834.81
2019-01-18T23:26:53.346Z,97837.75
2019-01-18T23:29:45.523Z,97846.95
2019-01-18T23:32:40.219Z,97841.34
2019-01-18T23:35:54.365Z,97830.16
2019-01-18T23:38:51.902Z,97838.03
2019-01-18T23:41:37.638Z,97839.80
2019-01-18T23:44:23.595Z,97837.27
2019-01-18T23:47:23.272Z,97830.09
2019-01-18T23:50:05.797Z,97829.44
2019-01-18T23:52:59.608Z,97835.51
2019-01-18T23:56:19.287Z,97839.06
2019-01-18T23:59:27.593Z,97834.74
